Terminal Aerodrome Forecast
Issued by NWS Greer, SC

Home | Current Version | Previous Version | Text Only | Print | Product List | Glossary On
Versions: 1 2 3 4 5 6 7 8 9 10 11 12 13 14 15 16 17 18 19 20 21 22 23 24 25 26
000
FTUS42 KGSP 181300 AAA
TAFGSP
TAF AMD
KGSP 181351Z 1814/1912 03006KT P6SM SCT006 BKN050
      TEMPO 1814/1816 6SM BR BKN006 OVC050
     FM181600 05005KT P6SM BKN050
     FM181800 10003KT P6SM SCT050
     FM191100 04003KT P6SM BKN016=

USA.gov is the U.S. government's official web portal to all federal, state and local government web resources and services.